Time;durP1;ratioP1;P1;durP2;ratioP2;P2;SDS_P1;SDS_P2;PMS_P1;PMS_P2;Temp;Humidity;BMP_temperature;BMP_pressure;BME280_temperature;BME280_humidity;BME280_pressure;Samples;Min_cycle;Max_cycle;Signal;HPM_P1;HPM_P2
2022/06/19 00:00:16;;;;;;;9.30;6.45;;;;;;;27.41;55.76;98940.38;5001864;28;20187;-93
2022/06/19 00:02:43;;;;;;;11.77;6.80;;;;;;;27.40;55.83;98932.41;5001526;28;20032;-93
2022/06/19 00:05:10;;;;;;;9.40;6.25;;;;;;;27.48;55.84;98927.22;5017884;28;20519;-93
2022/06/19 00:07:35;;;;;;;11.55;6.68;;;;;;;27.52;56.53;98920.09;5017673;28;20068;-93
2022/06/19 00:10:01;;;;;;;10.50;6.63;;;;;;;27.65;56.02;98906.94;5001654;28;20052;-93
2022/06/19 00:12:27;;;;;;;10.52;6.32;;;;;;;27.69;55.59;98900.59;5001815;28;20190;-93
2022/06/19 00:14:53;;;;;;;10.15;6.80;;;;;;;27.66;55.42;98894.84;5001416;28;20017;-94
2022/06/19 00:17:18;;;;;;;9.57;6.80;;;;;;;27.65;55.44;98894.00;5001407;28;20031;-93
2022/06/19 00:19:44;;;;;;;8.52;6.05;;;;;;;27.68;55.47;98892.63;5017606;28;20032;-93
2022/06/19 00:22:13;;;;;;;10.80;6.57;;;;;;;27.67;54.95;98888.25;5001219;28;20059;-93
2022/06/19 00:24:38;;;;;;;10.40;6.50;;;;;;;27.62;54.87;98885.50;5018114;28;20029;-93
2022/06/19 00:37:09;;;;;;;10.30;6.68;;;;;;;27.42;55.76;98840.41;5034486;28;20107;-93
2022/06/19 00:39:43;;;;;;;8.35;5.50;;;;;;;27.56;55.55;98852.50;5000881;28;20037;-93
2022/06/19 00:42:13;;;;;;;10.10;6.18;;;;;;;27.57;56.09;98851.41;5019303;28;20033;-93
2022/06/19 00:44:39;;;;;;;9.07;6.40;;;;;;;27.24;56.14;98839.03;5000662;28;20018;-93
2022/06/19 00:47:11;;;;;;;9.15;6.20;;;;;;;27.27;55.64;98843.97;5001084;28;20025;-94
2022/06/19 00:49:59;;;;;;;11.15;6.35;;;;;;;27.36;55.65;98830.50;5017367;28;20022;-93
2022/06/19 00:52:33;;;;;;;11.35;6.40;;;;;;;27.22;56.00;98823.94;5017440;28;20022;-94
2022/06/19 00:55:07;;;;;;;11.85;6.45;;;;;;;27.23;56.24;98820.09;5001092;28;20036;-93
2022/06/19 00:57:34;;;;;;;10.65;6.53;;;;;;;27.32;56.04;98823.09;5017035;28;20422;-93
2022/06/19 01:00:29;;;;;;;9.60;5.87;;;;;;;27.22;56.16;98821.19;5017052;28;20029;-93
2022/06/19 01:02:57;;;;;;;9.13;6.15;;;;;;;27.12;57.04;98824.75;4980474;28;20038;-93
2022/06/19 01:05:25;;;;;;;11.25;6.50;;;;;;;27.01;56.92;98828.59;4980288;28;20034;-93
2022/06/19 01:07:51;;;;;;;8.25;5.78;;;;;;;27.14;56.45;98819.81;4963988;28;20468;-94
2022/06/19 01:10:17;;;;;;;9.50;6.45;;;;;;;27.25;56.51;98812.41;4960956;28;20045;-93
2022/06/19 01:12:47;;;;;;;9.15;5.88;;;;;;;27.22;56.02;98819.25;4960782;28;20034;-93
2022/06/19 01:15:16;;;;;;;9.43;6.25;;;;;;;27.16;56.15;98817.63;4961254;28;20038;-93
2022/06/19 01:17:42;;;;;;;14.55;6.50;;;;;;;27.00;56.31;98826.94;4960959;28;20070;-93
2022/06/19 01:20:11;;;;;;;8.32;6.13;;;;;;;27.01;56.71;98814.88;4960816;28;20504;-92
2022/06/19 01:22:47;;;;;;;9.68;6.50;;;;;;;27.05;56.40;98817.88;4960612;28;20074;-92
2022/06/19 01:25:30;;;;;;;9.25;5.70;;;;;;;26.91;56.82;98821.09;4974140;28;20132;-92
2022/06/19 01:30:44;;;;;;;9.52;6.38;;;;;;;26.94;56.97;98803.28;4999365;28;20049;-93
2022/06/19 01:33:13;;;;;;;8.25;6.68;;;;;;;26.97;56.68;98805.50;4985634;28;20116;-93
2022/06/19 01:35:41;;;;;;;9.55;6.10;;;;;;;26.91;56.80;98812.06;5016350;28;20075;-93
2022/06/19 01:38:15;;;;;;;7.87;6.23;;;;;;;26.94;56.72;98797.78;5032995;28;20042;-93
2022/06/19 01:40:43;;;;;;;8.35;6.20;;;;;;;26.94;56.83;98790.38;5017243;28;20041;-93
2022/06/19 01:43:09;;;;;;;9.93;6.80;;;;;;;26.92;57.61;98795.31;4999994;28;20029;-93
2022/06/19 01:45:38;;;;;;;11.05;6.38;;;;;;;26.86;56.89;98776.38;5001287;28;20036;-93
2022/06/19 01:48:04;;;;;;;10.77;5.78;;;;;;;26.89;57.17;98781.31;5000560;28;20375;-94
2022/06/19 01:50:30;;;;;;;7.40;5.90;;;;;;;26.82;57.39;98780.75;5000156;28;20025;-93
2022/06/19 01:53:21;;;;;;;6.35;5.60;;;;;;;26.79;57.11;98792.28;5000210;28;20037;-93
2022/06/19 01:55:47;;;;;;;8.90;6.47;;;;;;;26.63;57.70;98791.44;5015770;28;20056;-92
2022/06/19 02:09:01;;;;;;;7.72;6.43;;;;;;;26.34;58.17;98802.03;5038008;28;20091;-93
2022/06/19 02:11:29;;;;;;;9.32;6.18;;;;;;;26.11;58.39;98813.44;5020499;28;20056;-94
2022/06/19 02:13:57;;;;;;;10.85;6.32;;;;;;;25.35;60.59;98827.41;5003644;28;20030;-92
2022/06/19 02:16:22;;;;;;;;;;;;;;;25.25;61.43;98828.16;5020948;28;20036;-94
2022/06/19 02:18:50;;;;;;;9.75;7.10;;;;;;;25.30;61.07;98824.66;5019881;28;20376;-94
2022/06/19 02:21:20;;;;;;;10.55;7.05;;;;;;;25.07;61.79;98836.78;5003596;28;20031;-92
2022/06/19 02:23:46;;;;;;;7.60;5.82;;;;;;;24.49;62.92;98885.59;5003329;28;20065;-92
2022/06/19 02:26:12;;;;;;;5.68;3.92;;;;;;;24.31;63.43;98887.81;5003382;28;20026;-92
2022/06/19 02:28:41;;;;;;;3.70;2.70;;;;;;;23.92;62.91;98849.53;5003478;28;20033;-92
2022/06/19 02:31:07;;;;;;;3.95;2.42;;;;;;;23.79;63.35;98877.22;5015667;28;20112;-93
2022/06/19 02:33:36;;;;;;;5.38;2.50;;;;;;;23.93;62.54;98937.78;4984398;28;20030;-91
2022/06/19 02:36:01;;;;;;;4.07;2.03;;;;;;;23.25;63.48;98942.34;5000084;28;20036;-93
2022/06/19 02:38:27;;;;;;;2.58;1.88;;;;;;;23.55;63.13;98882.84;5008069;28;20049;-94
2022/06/19 02:41:15;;;;;;;3.15;1.65;;;;;;;24.05;60.87;98848.34;5003245;28;20047;-92
2022/06/19 02:43:40;;;;;;;5.80;1.80;;;;;;;24.04;59.46;98924.03;4980334;28;20073;-90
2022/06/19 02:46:06;;;;;;;5.75;1.83;;;;;;;23.41;60.59;98957.09;5019290;28;20026;-90
2022/06/19 02:48:32;;;;;;;2.42;1.50;;;;;;;23.07;60.87;98877.88;5003666;28;20022;-92
2022/06/19 02:51:00;;;;;;;2.88;1.77;;;;;;;23.62;60.23;98871.75;5003222;28;20021;-92
2022/06/19 02:53:26;;;;;;;4.20;1.55;;;;;;;23.30;58.85;98982.53;5002952;28;20025;-92
2022/06/19 02:55:51;;;;;;;3.22;1.60;;;;;;;22.90;60.29;98959.66;5002870;28;20475;-94
2022/06/19 02:58:19;;;;;;;3.50;1.63;;;;;;;23.25;58.32;98936.88;5002973;28;20026;-92
2022/06/19 03:00:45;;;;;;;4.68;1.70;;;;;;;22.54;60.58;99034.38;5035929;28;20022;-91
2022/06/19 03:03:32;;;;;;;6.80;1.67;;;;;;;22.61;59.50;98927.94;5002853;28;20052;-92
2022/06/19 03:05:58;;;;;;;2.85;1.40;;;;;;;23.18;58.35;98998.97;5003309;28;20379;-94
2022/06/19 03:08:23;;;;;;;9.88;2.33;;;;;;;22.61;57.48;99040.53;5002750;28;20040;-94
2022/06/19 03:10:48;;;;;;;6.65;2.00;;;;;;;22.57;57.53;98971.19;5002517;28;20486;-94
2022/06/19 03:13:17;;;;;;;5.30;2.33;;;;;;;22.30;57.48;99038.19;5002930;28;20507;-93
2022/06/19 03:15:42;;;;;;;5.15;2.10;;;;;;;22.16;57.73;99001.31;5001450;28;20029;-94
2022/06/19 03:18:08;;;;;;;5.60;1.80;;;;;;;22.42;56.84;99022.66;5002527;28;20025;-93
2022/06/19 03:20:33;;;;;;;7.55;1.90;;;;;;;21.92;57.86;99044.00;5018868;28;20030;-94
2022/06/19 03:22:58;;;;;;;4.80;1.92;;;;;;;22.07;57.04;99049.88;5002863;28;20041;-94
2022/06/19 03:25:24;;;;;;;7.13;1.95;;;;;;;22.09;56.60;99065.97;5002482;28;20112;-93
2022/06/19 03:27:49;;;;;;;4.47;1.90;;;;;;;22.09;56.72;99057.78;5002392;28;20087;-94
2022/06/19 03:30:19;;;;;;;5.95;1.83;;;;;;;22.09;57.30;99072.25;5002703;28;20017;-94
2022/06/19 03:32:45;;;;;;;7.72;1.92;;;;;;;22.10;55.99;99089.41;5002487;28;20028;-94
2022/06/19 03:35:10;;;;;;;5.63;1.88;;;;;;;22.06;55.59;99080.88;5005512;28;20025;-93
2022/06/19 03:37:36;;;;;;;6.53;2.22;;;;;;;21.94;56.42;99088.16;5002192;28;20045;-94
2022/06/19 03:40:01;;;;;;;7.35;2.20;;;;;;;21.89;55.48;99118.00;5018485;28;20122;-95
2022/06/19 03:42:27;;;;;;;6.22;1.85;;;;;;;22.00;55.02;99098.13;5034511;28;20027;-93
2022/06/19 03:44:52;;;;;;;5.40;1.75;;;;;;;21.48;55.22;99124.19;5018417;28;20025;-92
2022/06/19 03:47:22;;;;;;;5.70;1.63;;;;;;;21.56;55.22;99118.44;4993408;28;20013;-93
2022/06/19 03:49:48;;;;;;;6.18;1.90;;;;;;;21.38;54.84;99129.34;5018120;28;20361;-88
2022/06/19 03:52:14;;;;;;;7.55;2.35;;;;;;;21.12;54.58;99134.00;5002121;28;20171;-94
2022/06/19 03:54:39;;;;;;;7.70;1.92;;;;;;;21.14;54.47;99139.22;5001822;28;20025;-95
2022/06/19 03:57:04;;;;;;;10.30;2.20;;;;;;;21.19;55.22;99120.31;5018016;28;20479;-94
2022/06/19 03:59:30;;;;;;;7.95;2.13;;;;;;;21.63;53.79;99119.19;5018461;28;20043;-94
2022/06/19 04:01:56;;;;;;;7.50;2.00;;;;;;;21.89;53.38;99123.44;5001623;28;20130;-95
2022/06/19 04:04:21;;;;;;;9.85;2.13;;;;;;;21.94;52.30;99110.78;5002035;28;20472;-95
2022/06/19 04:06:46;;;;;;;7.38;2.25;;;;;;;22.04;51.59;99110.25;5001795;28;20021;-94
2022/06/19 04:09:14;;;;;;;5.75;1.90;;;;;;;22.00;52.43;99096.22;5002063;28;20035;-95
2022/06/19 04:11:40;;;;;;;6.60;2.38;;;;;;;21.73;52.25;99096.84;5001687;28;20365;-92
2022/06/19 04:14:06;;;;;;;9.23;2.03;;;;;;;21.58;52.47;99094.53;5017865;28;20033;-95
2022/06/19 04:16:32;;;;;;;6.18;1.65;;;;;;;21.47;52.25;99106.22;5001518;28;20025;-94
2022/06/19 04:18:59;;;;;;;6.85;1.90;;;;;;;21.85;51.75;99106.75;5001419;28;20048;-95
2022/06/19 04:21:28;;;;;;;8.48;2.10;;;;;;;22.09;51.35;99095.94;5001700;28;20022;-94
2022/06/19 04:23:54;;;;;;;;;;;;;;;21.89;50.52;99102.47;5018390;28;20041;-94
2022/06/19 04:26:20;;;;;;;7.00;1.88;;;;;;;21.69;51.48;99083.69;5017924;28;19913;-95
2022/06/19 04:28:46;;;;;;;4.88;1.80;;;;;;;21.49;51.37;99083.16;5017308;28;20021;-94
2022/06/19 04:31:11;;;;;;;7.35;1.83;;;;;;;21.25;51.98;99078.63;5017739;28;20594;-94
2022/06/19 04:33:39;;;;;;;7.05;1.83;;;;;;;21.52;51.40;99090.84;5001461;28;20037;-94
2022/06/19 04:36:10;;;;;;;8.68;2.15;;;;;;;21.59;51.38;99094.31;5001260;28;20026;-92
2022/06/19 04:38:37;;;;;;;4.25;1.73;;;;;;;21.84;50.38;99137.75;5001124;28;20041;-92
2022/06/19 04:41:02;;;;;;;6.03;1.58;;;;;;;21.71;50.43;99183.34;5001135;28;20085;-94
2022/06/19 04:43:28;;;;;;;6.45;1.65;;;;;;;21.91;50.28;99127.59;5001171;28;20033;-94
2022/06/19 04:46:01;;;;;;;4.38;1.70;;;;;;;21.91;49.66;99089.47;5017717;28;20428;-94
2022/06/19 04:48:27;;;;;;;5.60;1.63;;;;;;;22.18;49.57;99073.56;4978703;28;20077;-94
2022/06/19 04:50:53;;;;;;;7.40;2.00;;;;;;;22.04;49.33;99083.00;4978331;28;20125;-95
2022/06/19 04:53:19;;;;;;;8.15;2.28;;;;;;;21.99;48.98;99093.75;4994749;28;20018;-95
2022/06/19 04:55:44;;;;;;;4.65;1.50;;;;;;;21.83;49.50;99119.75;4978217;28;20022;-94
2022/06/19 04:58:09;;;;;;;5.50;1.75;;;;;;;21.87;49.87;99099.16;4994492;28;20022;-95
2022/06/19 05:00:35;;;;;;;7.72;1.88;;;;;;;22.18;48.73;99092.63;4981696;28;20072;-95
2022/06/19 05:03:00;;;;;;;6.45;1.67;;;;;;;22.06;48.25;99107.28;4981118;28;20030;-95
2022/06/19 05:05:25;;;;;;;7.63;1.85;;;;;;;21.93;48.49;99111.03;4997581;28;20022;-93
2022/06/19 05:07:51;;;;;;;5.18;1.80;;;;;;;22.16;48.84;99111.09;4997258;28;20117;-95
2022/06/19 05:10:16;;;;;;;6.40;2.20;;;;;;;21.92;48.06;99103.91;4997185;28;20468;-95
2022/06/19 05:12:41;;;;;;;7.85;2.10;;;;;;;21.99;47.92;99094.56;4997075;28;20033;-94
2022/06/19 05:15:07;;;;;;;8.15;1.98;;;;;;;22.14;48.15;99091.44;4997260;28;20555;-94
2022/06/19 05:17:33;;;;;;;5.03;1.80;;;;;;;22.26;47.81;99070.50;4980730;28;20121;-94
2022/06/19 05:19:58;;;;;;;5.20;1.60;;;;;;;22.48;47.47;99050.84;4981234;28;20030;-94
2022/06/19 05:22:24;;;;;;;5.78;1.60;;;;;;;22.72;47.11;99048.97;4997481;28;20117;-95
2022/06/19 05:24:49;;;;;;;7.55;1.95;;;;;;;22.72;46.88;99038.88;4981026;28;20388;-95
2022/06/19 05:27:15;;;;;;;7.50;2.03;;;;;;;22.85;46.84;99040.53;5006798;28;20025;-94
2022/06/19 05:29:40;;;;;;;6.30;1.70;;;;;;;22.69;46.85;99043.94;5017329;28;20017;-95
2022/06/19 05:32:06;;;;;;;8.82;2.17;;;;;;;22.68;46.39;99039.56;5016778;28;20372;-95
2022/06/19 05:34:36;;;;;;;7.13;1.90;;;;;;;22.80;46.89;99040.41;5001462;28;20026;-95
2022/06/19 05:37:03;;;;;;;7.97;2.05;;;;;;;22.72;46.16;99046.22;5016434;28;20029;-95
2022/06/19 05:39:28;;;;;;;4.95;1.60;;;;;;;22.83;46.29;99048.97;4999606;28;20022;-94
2022/06/19 05:41:57;;;;;;;7.18;2.00;;;;;;;22.84;46.35;99036.16;5000187;28;20042;-95
2022/06/19 05:44:22;;;;;;;;;;;;;;;22.85;46.00;99027.75;5017920;28;20530;-95
2022/06/19 05:46:48;;;;;;;7.63;1.80;;;;;;;22.88;46.09;99024.53;5017208;28;19916;-95
2022/06/19 05:49:13;;;;;;;9.10;1.80;;;;;;;22.85;45.27;99041.38;5000269;28;20459;-94
2022/06/19 05:51:38;;;;;;;5.40;2.03;;;;;;;22.93;46.24;99032.81;5016517;28;20037;-94
2022/06/19 05:54:04;;;;;;;8.27;2.13;;;;;;;22.87;45.52;99027.50;5016663;28;20033;-95
2022/06/19 05:56:29;;;;;;;6.47;1.95;;;;;;;23.01;45.16;99033.50;5000761;28;20478;-95
2022/06/19 05:58:57;;;;;;;5.63;1.83;;;;;;;22.78;45.52;99046.09;5000253;28;20025;-93
2022/06/19 06:01:23;;;;;;;7.05;1.85;;;;;;;22.55;45.07;99043.38;5000247;28;20036;-95
2022/06/19 06:03:49;;;;;;;6.97;2.08;;;;;;;22.63;46.08;99026.66;5000071;28;20025;-94
2022/06/19 06:06:17;;;;;;;6.13;1.60;;;;;;;22.82;45.74;99022.75;5016531;28;20021;-95
2022/06/19 06:08:43;;;;;;;6.78;1.83;;;;;;;22.98;45.20;99015.72;4999984;28;20475;-95
2022/06/19 06:11:08;;;;;;;5.07;1.70;;;;;;;22.92;44.56;99017.53;5016230;28;20124;-95
2022/06/19 06:13:34;;;;;;;8.57;1.83;;;;;;;22.86;45.30;99010.31;5016513;28;20024;-94
2022/06/19 06:15:59;;;;;;;7.97;1.80;;;;;;;22.86;45.73;99015.75;5000183;28;20487;-95
2022/06/19 06:18:25;;;;;;;5.65;1.85;;;;;;;22.87;45.01;99014.69;5000347;28;20053;-95
2022/06/19 06:21:18;;;;;;;6.82;1.95;;;;;;;22.89;45.78;99018.00;5016060;28;20022;-94
2022/06/19 06:23:43;;;;;;;5.53;1.75;;;;;;;23.15;45.69;99019.34;4994147;28;20167;-95
2022/06/19 06:26:13;;;;;;;7.35;2.08;;;;;;;23.30;45.49;99021.56;5016326;28;20057;-95
2022/06/19 06:28:41;;;;;;;4.82;1.73;;;;;;;23.27;44.83;99030.25;5000568;28;20471;-94
2022/06/19 06:31:10;;;;;;;5.80;2.13;;;;;;;23.33;45.83;99032.00;5016245;28;20029;-95
2022/06/19 06:33:35;;;;;;;6.25;1.77;;;;;;;23.34;45.47;99019.19;5000297;28;20446;-95
2022/06/19 06:36:01;;;;;;;6.80;1.70;;;;;;;23.18;44.65;99024.34;4999807;28;20026;-95
2022/06/19 06:38:26;;;;;;;6.88;2.08;;;;;;;23.22;45.02;99044.63;4999541;28;20046;-95
2022/06/19 06:40:52;;;;;;;5.05;2.00;;;;;;;23.42;45.02;99057.00;4999858;28;20034;-95
2022/06/19 06:43:19;;;;;;;4.85;1.88;;;;;;;23.45;45.08;99141.94;5016180;28;20088;-94
2022/06/19 06:45:44;;;;;;;7.30;2.05;;;;;;;23.33;45.47;99252.22;5000410;28;20029;-95
2022/06/19 06:48:09;;;;;;;8.07;1.95;;;;;;;23.55;46.83;99327.81;4999601;28;20533;-95
2022/06/19 06:50:37;;;;;;;5.00;1.83;;;;;;;23.64;46.29;99295.53;5001085;28;20033;-94
2022/06/19 06:53:02;;;;;;;8.07;2.08;;;;;;;23.40;46.66;99272.84;5003327;28;20112;-95
2022/06/19 06:55:27;;;;;;;6.20;2.03;;;;;;;22.78;48.91;99260.66;5020280;28;20114;-93
2022/06/19 06:57:53;;;;;;;8.30;2.30;;;;;;;22.83;49.25;99339.91;5002976;28;20036;-94
2022/06/19 07:00:23;;;;;;;7.72;2.17;;;;;;;23.21;48.97;99345.00;5003139;28;20091;-94
2022/06/19 07:02:49;;;;;;;7.18;2.17;;;;;;;23.06;47.68;99322.75;5002737;28;20026;-93
2022/06/19 07:05:15;;;;;;;7.13;2.03;;;;;;;22.81;47.71;99344.75;5019163;28;20033;-94
2022/06/19 07:11:04;;;;;;;5.90;1.85;;;;;;;22.49;47.88;99274.09;5033728;28;20064;-89
2022/06/19 07:13:30;;;;;;;6.43;2.20;;;;;;;22.03;49.54;99301.94;5012267;28;20036;-88
2022/06/19 07:15:55;;;;;;;7.25;2.08;;;;;;;21.97;49.52;99314.56;5014617;28;20025;-88
2022/06/19 07:18:20;;;;;;;7.18;2.10;;;;;;;21.98;49.31;99279.97;4997209;28;20022;-89
2022/06/19 07:20:46;;;;;;;8.60;2.10;;;;;;;21.61;49.44;99304.47;5031368;28;20030;-91
2022/06/19 07:23:11;;;;;;;7.72;2.03;;;;;;;21.66;49.48;99301.91;5017149;28;20064;-89
2022/06/19 07:25:37;;;;;;;4.78;1.70;;;;;;;21.41;48.38;99271.19;5014606;28;20075;-90
2022/06/19 07:28:03;;;;;;;5.20;2.00;;;;;;;21.40;48.55;99274.16;5005893;28;20026;-91
2022/06/19 07:30:29;;;;;;;5.55;1.80;;;;;;;21.35;48.01;99255.78;5031395;28;20014;-91
2022/06/19 07:32:55;;;;;;;5.63;1.63;;;;;;;21.43;47.43;99262.81;4998700;28;20024;-88
2022/06/19 07:35:22;;;;;;;5.90;1.77;;;;;;;21.24;48.64;99267.38;5034028;28;20030;-95
2022/06/19 07:37:47;;;;;;;5.07;1.50;;;;;;;21.31;47.63;99268.16;4998979;28;20049;-94
2022/06/19 07:40:14;;;;;;;5.85;1.70;;;;;;;20.85;48.08;99265.81;4980221;28;20027;-91
2022/06/19 07:42:39;;;;;;;7.82;1.48;;;;;;;20.82;47.89;99258.09;5017952;28;20034;-91
2022/06/19 07:45:05;;;;;;;5.63;1.63;;;;;;;20.91;48.64;99248.63;5020918;28;20030;-92
2022/06/19 07:50:16;;;;;;;5.13;1.70;;;;;;;21.60;46.92;99266.59;5013376;28;20588;-93
2022/06/19 07:52:44;;;;;;;7.45;1.90;;;;;;;21.31;46.54;99284.50;4999130;28;20030;-93
2022/06/19 07:55:12;;;;;;;6.37;1.80;;;;;;;21.42;48.76;99316.41;4998911;28;20018;-94
2022/06/19 07:57:37;;;;;;;7.03;2.00;;;;;;;21.91;47.89;99331.81;4998544;28;20025;-93
2022/06/19 08:00:12;;;;;;;5.38;2.20;;;;;;;22.09;47.04;99332.88;4999003;28;20037;-92
2022/06/19 08:02:37;;;;;;;5.70;1.65;;;;;;;22.29;45.91;99333.50;4998440;28;20113;-94
2022/06/19 08:05:05;;;;;;;6.88;1.90;;;;;;;22.31;46.00;99312.28;4998695;28;20060;-93
2022/06/19 08:07:30;;;;;;;7.37;2.00;;;;;;;22.57;45.99;99303.75;4998746;28;20018;-91
2022/06/19 08:09:56;;;;;;;4.57;1.42;;;;;;;22.23;45.79;99297.09;4998356;28;20033;-92
2022/06/19 08:12:22;;;;;;;6.25;2.00;;;;;;;22.23;45.62;99280.75;5005560;28;20117;-91
2022/06/19 08:14:48;;;;;;;6.00;1.73;;;;;;;22.21;45.01;99282.00;4978662;28;20064;-91
2022/06/19 08:17:13;;;;;;;6.65;2.00;;;;;;;22.32;45.61;99281.25;4980534;28;20045;-91
2022/06/19 08:19:39;;;;;;;8.00;2.50;;;;;;;22.23;46.05;99269.00;4987252;28;20433;-91
2022/06/19 08:22:04;;;;;;;6.50;2.25;;;;;;;22.14;45.93;99265.75;4996067;28;20117;-91
2022/06/19 08:24:29;;;;;;;6.88;2.40;;;;;;;22.43;45.70;99271.47;4998290;28;20487;-92
2022/06/19 08:27:28;;;;;;;3.78;1.83;;;;;;;22.73;45.43;99285.09;5014236;28;20022;-92
2022/06/19 08:29:46;;;;;;;7.40;2.00;;;;;;;22.73;44.37;99279.63;5007653;28;20065;-92
2022/06/19 08:32:11;;;;;;;5.30;2.13;;;;;;;22.52;44.39;99280.97;4992837;28;20053;-92
2022/06/19 08:34:37;;;;;;;4.78;2.15;;;;;;;22.46;43.51;99268.28;4981937;28;20117;-91
2022/06/19 08:37:04;;;;;;;6.63;2.60;;;;;;;22.26;44.39;99265.84;5016292;28;20028;-92
2022/06/19 08:39:29;;;;;;;5.70;1.80;;;;;;;22.46;44.82;99258.19;5017515;28;20030;-91
2022/06/19 08:42:14;;;;;;;4.85;1.90;;;;;;;22.66;44.26;99262.50;5001200;28;20021;-92
2022/06/19 08:44:44;;;;;;;5.43;1.60;;;;;;;22.78;44.34;99272.41;5002748;28;20033;-91
2022/06/19 08:47:28;;;;;;;6.85;2.30;;;;;;;23.05;44.24;99261.09;5033712;28;20479;-92
2022/06/19 08:50:31;;;;;;;6.63;2.30;;;;;;;22.88;42.93;99255.50;5017349;28;20029;-92
2022/06/19 08:53:29;;;;;;;7.70;2.00;;;;;;;22.82;43.46;99249.09;5018055;28;20107;-92
2022/06/19 08:56:07;;;;;;;5.80;2.03;;;;;;;22.97;43.95;99250.53;5022973;28;20033;-91
2022/06/19 08:58:57;;;;;;;5.55;2.20;;;;;;;22.83;43.91;99231.66;5034569;28;20021;-93
2022/06/19 09:01:43;;;;;;;5.72;1.90;;;;;;;22.81;43.84;99255.63;5014507;28;20033;-91
2022/06/19 09:07:16;;;;;;;6.10;2.00;;;;;;;22.98;44.47;99228.47;5033794;28;20079;-93
2022/06/19 09:09:45;;;;;;;6.30;2.08;;;;;;;22.98;44.37;99242.09;4998772;28;20025;-90
2022/06/19 09:12:31;;;;;;;6.10;2.40;;;;;;;22.90;43.84;99218.75;5023880;28;20053;-92
2022/06/19 09:15:37;;;;;;;8.00;2.47;;;;;;;22.91;44.17;99193.13;5014550;28;20017;-92
2022/06/19 09:18:29;;;;;;;6.78;2.58;;;;;;;22.99;44.51;99182.94;5015495;28;20060;-91
2022/06/19 09:21:11;;;;;;;4.15;1.75;;;;;;;23.01;44.36;99197.16;4996392;28;20033;-91
2022/06/19 09:23:44;;;;;;;5.18;2.13;;;;;;;23.11;44.49;99189.22;5016567;28;20033;-92
2022/06/19 09:26:17;;;;;;;6.68;2.00;;;;;;;23.10;44.21;99193.84;5009820;28;20025;-92
2022/06/19 09:28:58;;;;;;;7.50;2.03;;;;;;;23.31;44.35;99208.78;4995451;28;20124;-91
2022/06/19 09:31:42;;;;;;;7.25;2.33;;;;;;;23.20;44.39;99218.66;5017404;28;20077;-92
2022/06/19 09:34:12;;;;;;;6.18;1.83;;;;;;;23.20;45.17;99198.72;4997910;28;20022;-91
2022/06/19 09:36:39;;;;;;;5.95;1.85;;;;;;;23.24;46.66;99101.66;5016590;28;20491;-92
2022/06/19 09:39:07;;;;;;;6.07;2.22;;;;;;;23.13;48.02;99043.31;5010018;28;20054;-92
2022/06/19 09:41:35;;;;;;;9.57;2.47;;;;;;;23.22;51.47;99028.25;5007891;28;20038;-90
2022/06/19 09:44:36;;;;;;;8.10;2.15;;;;;;;23.26;52.33;98984.94;4993288;28;20034;-91
2022/06/19 09:47:09;;;;;;;6.22;2.10;;;;;;;23.35;52.62;98917.13;4956925;28;20042;-90
2022/06/19 09:49:51;;;;;;;6.05;2.05;;;;;;;23.44;52.04;98870.06;5009385;28;20038;-90
2022/06/19 09:52:32;;;;;;;5.07;2.00;;;;;;;23.36;51.13;98858.75;4994205;28;20034;-88
2022/06/19 09:55:01;;;;;;;10.18;2.60;;;;;;;23.51;50.39;98878.94;4981905;28;20564;-90
2022/06/19 09:57:32;;;;;;;6.40;2.20;;;;;;;23.41;48.86;98911.50;4992424;28;20054;-90
2022/06/19 10:00:06;;;;;;;6.30;2.50;;;;;;;23.33;49.49;98935.66;5007964;28;20436;-90
2022/06/19 10:02:42;;;;;;;5.68;2.15;;;;;;;22.76;48.43;99058.31;4999420;28;20022;-90
2022/06/19 10:05:45;;;;;;;9.77;2.60;;;;;;;22.13;48.96;99125.19;5003810;28;20468;-90
2022/06/19 10:08:15;;;;;;;6.93;2.17;;;;;;;22.42;49.65;99112.56;5000508;28;20038;-91
2022/06/19 10:10:46;;;;;;;4.70;1.73;;;;;;;22.56;49.04;99118.63;4971355;28;20054;-90
2022/06/19 10:13:17;;;;;;;8.50;2.35;;;;;;;22.47;47.99;99104.53;4981341;28;20027;-90
2022/06/19 10:15:43;;;;;;;5.57;1.90;;;;;;;22.70;48.90;99083.78;4990015;28;20101;-91
2022/06/19 10:18:31;;;;;;;5.45;2.17;;;;;;;22.86;48.42;99102.19;4992109;28;20026;-90
2022/06/19 10:21:11;;;;;;;6.53;2.15;;;;;;;23.14;47.29;99172.34;4987245;28;21003;-90
2022/06/19 10:23:49;;;;;;;4.80;2.15;;;;;;;23.34;47.39;99200.13;4972507;28;20503;-90
2022/06/19 10:26:30;;;;;;;7.93;2.47;;;;;;;23.20;46.58;99182.34;4971094;28;20030;-90
2022/06/19 10:29:09;;;;;;;5.70;2.03;;;;;;;23.01;47.63;99159.81;4993644;28;20037;-91
2022/06/19 10:31:46;;;;;;;6.70;2.20;;;;;;;22.90;47.61;99196.09;4985165;28;20046;-91
2022/06/19 10:34:35;;;;;;;6.80;2.05;;;;;;;22.93;47.74;99198.34;4973605;28;20384;-90
2022/06/19 10:37:16;;;;;;;9.38;2.08;;;;;;;23.01;47.30;99167.16;4996819;28;20072;-91
2022/06/19 10:39:52;;;;;;;8.73;2.15;;;;;;;22.86;47.46;99176.66;5034270;28;20119;-90
2022/06/19 10:42:32;;;;;;;5.20;1.67;;;;;;;23.12;47.08;99186.25;5017459;28;20026;-91
2022/06/19 10:45:35;;;;;;;6.40;2.03;;;;;;;23.38;45.56;99181.38;5017014;28;20471;-91
2022/06/19 10:48:25;;;;;;;6.78;1.88;;;;;;;23.33;45.89;99151.25;5015939;28;20459;-90
2022/06/19 10:51:08;;;;;;;5.03;1.92;;;;;;;23.56;45.85;99123.91;5018602;28;20468;-92
2022/06/19 10:54:14;;;;;;;8.32;2.55;;;;;;;23.49;45.76;99104.06;5017346;28;20079;-92
2022/06/19 10:56:56;;;;;;;6.05;2.30;;;;;;;23.55;46.56;99111.31;5017432;28;20483;-92
2022/06/19 10:59:23;;;;;;;5.30;1.92;;;;;;;23.51;44.96;99129.22;5037090;28;20040;-91
2022/06/19 11:05:32;;;;;;;6.72;2.15;;;;;;;23.71;45.82;99085.16;4994950;28;20120;-91
2022/06/19 11:07:57;;;;;;;5.80;2.17;;;;;;;23.66;45.54;99099.56;5013071;28;20026;-91
2022/06/19 11:10:30;;;;;;;7.38;2.25;;;;;;;23.72;45.45;99112.22;5002769;28;20041;-91
2022/06/19 11:12:57;;;;;;;6.20;2.22;;;;;;;23.50;45.62;99128.41;5028053;28;20546;-91
2022/06/19 11:15:33;;;;;;;3.78;1.80;;;;;;;23.24;46.18;99131.69;5012494;28;20026;-91
2022/06/19 11:18:21;;;;;;;4.88;2.15;;;;;;;23.19;46.89;99128.84;4997420;28;20029;-90
2022/06/19 11:20:59;;;;;;;7.80;2.30;;;;;;;22.95;47.15;99141.66;5017427;28;20033;-91
2022/06/19 11:23:30;;;;;;;5.97;2.40;;;;;;;23.00;47.15;99152.69;5029905;28;20064;-91
2022/06/19 11:26:12;;;;;;;5.60;2.33;;;;;;;23.30;47.47;99152.56;5011779;28;20029;-90
2022/06/19 11:28:44;;;;;;;9.13;2.70;;;;;;;23.37;47.20;99161.44;5008117;28;20017;-91
2022/06/19 11:31:14;;;;;;;7.38;2.70;;;;;;;23.38;46.77;99165.00;5018068;28;20400;-90
2022/06/19 11:33:40;;;;;;;5.47;2.10;;;;;;;23.37;46.77;99169.63;5018592;28;20135;-91
2022/06/19 11:36:08;;;;;;;5.28;1.95;;;;;;;23.62;47.29;99171.25;4995172;28;20025;-91
2022/06/19 11:38:41;;;;;;;5.88;2.30;;;;;;;23.75;46.54;99179.19;5015448;28;20486;-91
2022/06/19 11:41:21;;;;;;;5.13;1.88;;;;;;;23.57;47.09;99182.88;5008818;28;20480;-90
2022/06/19 11:43:59;;;;;;;5.53;1.90;;;;;;;23.39;46.76;99186.59;5024572;28;20033;-92
2022/06/19 11:46:27;;;;;;;6.43;2.00;;;;;;;23.40;47.38;99169.13;4999846;28;20030;-93
2022/06/19 11:48:55;;;;;;;5.07;1.98;;;;;;;23.55;47.26;99144.91;5017160;28;20044;-94
2022/06/19 11:51:23;;;;;;;8.07;1.90;;;;;;;23.63;46.56;99129.22;5003112;28;20038;-96
2022/06/19 11:53:54;;;;;;;6.30;2.42;;;;;;;23.47;46.88;99166.28;4997849;28;20060;-96
2022/06/19 11:56:35;;;;;;;6.20;2.00;;;;;;;23.49;46.99;99166.84;5023797;28;20053;-96
2022/06/19 11:59:03;;;;;;;5.47;1.90;;;;;;;23.68;47.32;99194.88;5026588;28;20017;-96
2022/06/19 12:01:38;;;;;;;8.70;2.45;;;;;;;23.38;47.44;99225.03;5022950;28;20026;-95
2022/06/19 12:04:08;;;;;;;6.70;2.17;;;;;;;23.37;46.74;99224.22;5016929;28;20029;-96
2022/06/19 12:06:46;;;;;;;4.28;1.98;;;;;;;23.48;46.52;99217.06;5024805;28;20026;-96
2022/06/19 12:09:40;;;;;;;6.03;1.80;;;;;;;23.64;46.72;99246.38;5026641;28;20080;-96
2022/06/19 12:12:15;;;;;;;10.15;1.67;;;;;;;23.50;45.87;99239.50;5020466;28;20083;-94
2022/06/19 12:14:46;;;;;;;7.78;2.08;;;;;;;23.55;46.00;99239.63;5019445;28;20029;-94
2022/06/19 12:17:36;;;;;;;9.70;2.15;;;;;;;23.47;45.87;99254.44;5024208;28;20053;-95
2022/06/19 12:20:05;;;;;;;5.68;1.92;;;;;;;23.58;46.76;99274.66;5022333;28;20025;-94
2022/06/19 12:22:39;;;;;;;8.70;1.80;;;;;;;23.76;46.87;99271.78;5025205;28;20025;-96
2022/06/19 12:25:10;;;;;;;4.97;2.10;;;;;;;23.64;46.31;99265.50;5026676;28;20040;-95